createdAt,value
2017-07-03T00:01:48.219Z,89.50
2017-07-03T00:04:15.692Z,89.80
2017-07-03T00:06:43.185Z,90.00
2017-07-03T00:09:11.461Z,89.50
2017-07-03T00:11:38.963Z,89.30
2017-07-03T00:14:06.463Z,89.90
2017-07-03T00:16:33.953Z,89.70
2017-07-03T00:19:02.216Z,89.80
2017-07-03T00:21:30.461Z,89.70
2017-07-03T00:23:57.960Z,89.50
2017-07-03T00:26:26.200Z,89.30
2017-07-03T00:28:53.692Z,89.20
2017-07-03T00:31:21.938Z,89.10
2017-07-03T00:33:49.424Z,89.10
2017-07-03T00:36:17.684Z,90.00
2017-07-03T00:38:45.181Z,89.70
2017-07-03T00:41:12.672Z,90.00
2017-07-03T00:43:40.158Z,89.70
2017-07-03T00:46:07.666Z,90.10
2017-07-03T00:48:35.147Z,90.00
2017-07-03T00:51:02.621Z,89.60
2017-07-03T00:53:30.112Z,89.10
2017-07-03T00:55:58.355Z,88.50
2017-07-03T00:58:26.658Z,88.80
2017-07-03T01:00:54.983Z,88.30
2017-07-03T01:03:22.488Z,88.30
2017-07-03T01:05:49.963Z,88.60
2017-07-03T01:08:18.209Z,88.70
2017-07-03T01:10:45.701Z,88.60
2017-07-03T01:13:13.197Z,88.80
2017-07-03T01:15:40.693Z,89.60
2017-07-03T01:18:08.177Z,89.30
2017-07-03T01:20:35.684Z,89.20
2017-07-03T01:23:03.156Z,89.50
2017-07-03T01:25:30.645Z,89.60
2017-07-03T01:27:58.920Z,89.20
2017-07-03T01:30:27.236Z,89.30
2017-07-03T01:32:54.757Z,89.20
2017-07-03T01:35:23.013Z,89.50
2017-07-03T01:37:50.493Z,89.40
2017-07-03T01:40:18.808Z,89.50
2017-07-03T01:42:46.326Z,89.50
2017-07-03T01:45:14.597Z,88.70
2017-07-03T01:47:42.851Z,89.60
2017-07-03T01:50:10.344Z,89.20
2017-07-03T01:52:38.614Z,90.00
2017-07-03T01:55:06.869Z,89.40
2017-07-03T01:57:34.357Z,89.40
2017-07-03T02:00:01.870Z,90.00
2017-07-03T02:02:29.343Z,90.00
2017-07-03T02:04:56.849Z,90.00
2017-07-03T02:07:24.347Z,90.00
2017-07-03T02:09:51.850Z,90.50
2017-07-03T02:12:20.085Z,90.90
2017-07-03T02:14:47.574Z,90.80
2017-07-03T02:17:15.830Z,90.90
2017-07-03T02:19:43.350Z,90.80
2017-07-03T02:22:10.844Z,90.80
2017-07-03T02:24:38.326Z,91.00
2017-07-03T02:27:06.634Z,91.30
2017-07-03T02:29:34.101Z,91.30
2017-07-03T02:32:01.620Z,91.50
2017-07-03T02:34:29.891Z,91.70
2017-07-03T02:36:58.144Z,91.90
2017-07-03T02:39:25.661Z,91.90
2017-07-03T02:41:53.161Z,92.10
2017-07-03T02:44:20.668Z,92.20
2017-07-03T02:46:48.149Z,92.50
2017-07-03T02:49:15.665Z,92.40
2017-07-03T02:51:43.178Z,92.40
2017-07-03T02:54:10.681Z,92.10
2017-07-03T02:56:38.957Z,92.10
2017-07-03T02:59:07.208Z,92.40
2017-07-03T03:01:34.708Z,92.40
2017-07-03T03:04:02.195Z,92.60
2017-07-03T03:06:29.685Z,92.70
2017-07-03T03:08:57.198Z,92.90
2017-07-03T03:11:24.703Z,92.70
2017-07-03T03:13:52.181Z,92.80
2017-07-03T03:16:20.444Z,92.80
2017-07-03T03:18:47.927Z,92.80
2017-07-03T03:21:16.181Z,93.00
2017-07-03T03:23:43.655Z,93.00
2017-07-03T03:26:11.916Z,93.40
2017-07-03T03:28:39.398Z,93.40
2017-07-03T03:31:07.659Z,93.60
2017-07-03T03:33:35.913Z,93.70
2017-07-03T03:36:03.431Z,93.70
2017-07-03T03:38:30.916Z,93.80
2017-07-03T03:40:58.449Z,93.80
2017-07-03T03:43:25.967Z,93.70
2017-07-03T03:45:53.444Z,93.50
2017-07-03T03:48:21.724Z,93.20
2017-07-03T03:50:49.215Z,93.20
2017-07-03T03:53:16.693Z,93.30
2017-07-03T03:55:44.180Z,93.30
2017-07-03T03:58:12.437Z,92.80
2017-07-03T04:00:39.945Z,92.80
2017-07-03T04:03:07.430Z,93.00
2017-07-03T04:05:34.905Z,92.80
2017-07-03T04:08:02.430Z,92.60
2017-07-03T04:10:29.917Z,92.40
2017-07-03T04:12:57.414Z,91.90
2017-07-03T04:15:25.679Z,91.80
2017-07-03T04:17:53.957Z,91.70
2017-07-03T04:20:22.205Z,91.50
2017-07-03T04:22:49.689Z,91.50
2017-07-03T04:25:17.962Z,91.60
2017-07-03T04:27:45.441Z,91.60
2017-07-03T04:30:12.924Z,91.90
2017-07-03T04:32:40.427Z,91.70
2017-07-03T04:35:07.900Z,91.50
2017-07-03T04:37:36.169Z,91.80
2017-07-03T04:40:04.421Z,91.50
2017-07-03T04:42:31.922Z,91.50
2017-07-03T04:45:00.160Z,91.50
2017-07-03T04:47:27.640Z,91.40
2017-07-03T04:49:55.906Z,91.30
2017-07-03T04:52:24.234Z,91.30
2017-07-03T04:54:51.722Z,90.70
2017-07-03T04:57:19.223Z,91.00
2017-07-03T04:59:47.463Z,91.10
2017-07-03T05:02:15.044Z,91.10
2017-07-03T05:04:43.292Z,91.00
2017-07-03T05:07:10.796Z,90.50
2017-07-03T05:09:39.055Z,90.40
2017-07-03T05:12:06.667Z,90.40
2017-07-03T05:14:34.155Z,90.70
2017-07-03T05:17:01.656Z,90.50
2017-07-03T05:19:29.153Z,90.60
2017-07-03T05:21:56.637Z,90.80
2017-07-03T05:24:24.142Z,90.40
2017-07-03T05:26:51.636Z,90.80
2017-07-03T05:29:19.118Z,90.50
2017-07-03T05:31:46.622Z,90.50
2017-07-03T05:34:14.095Z,90.00
2017-07-03T05:36:41.614Z,89.40
2017-07-03T05:39:09.859Z,88.90
2017-07-03T05:41:37.373Z,88.70
2017-07-03T05:44:10.470Z,89.00
2017-07-03T05:46:37.960Z,89.20
2017-07-03T05:49:05.442Z,87.90
2017-07-03T05:51:33.728Z,89.10
2017-07-03T05:54:01.970Z,88.00
2017-07-03T05:56:29.445Z,88.00
2017-07-03T05:58:57.013Z,86.50
2017-07-03T06:01:25.265Z,87.00
2017-07-03T06:03:52.758Z,86.90
2017-07-03T06:06:21.002Z,86.90
2017-07-03T06:08:48.516Z,86.90
2017-07-03T06:11:16.008Z,84.50
2017-07-03T06:13:43.494Z,85.00
2017-07-03T06:16:11.765Z,84.60
2017-07-03T06:18:39.241Z,84.60
2017-07-03T06:21:07.512Z,84.40
2017-07-03T06:23:35.778Z,83.40
2017-07-03T06:26:03.272Z,83.40
2017-07-03T06:28:30.753Z,83.60
2017-07-03T06:30:58.261Z,83.60
2017-07-03T06:33:26.526Z,79.80
2017-07-03T06:35:54.017Z,79.80
2017-07-03T06:38:21.520Z,79.70
2017-07-03T06:40:49.003Z,77.10
2017-07-03T06:43:16.493Z,75.50
2017-07-03T06:45:43.978Z,76.50
2017-07-03T06:48:11.541Z,77.30
2017-07-03T06:50:39.030Z,74.90
2017-07-03T06:53:06.524Z,71.90
2017-07-03T06:55:34.784Z,66.70
2017-07-03T06:58:03.034Z,66.80
2017-07-03T07:00:30.536Z,66.80
2017-07-03T07:02:58.778Z,66.10
2017-07-03T07:05:26.253Z,66.00
2017-07-03T07:07:53.732Z,66.70
2017-07-03T07:10:21.221Z,67.60
2017-07-03T07:12:48.723Z,68.40
2017-07-03T07:15:16.214Z,66.50
2017-07-03T07:17:43.747Z,60.30
2017-07-03T07:20:11.996Z,57.90
2017-07-03T07:22:39.476Z,57.80
2017-07-03T07:25:06.970Z,58.70
2017-07-03T07:27:34.452Z,57.10
2017-07-03T07:30:01.970Z,56.50
2017-07-03T07:32:30.212Z,54.90
2017-07-03T07:34:57.717Z,54.80
2017-07-03T07:37:25.181Z,52.80
2017-07-03T07:39:52.660Z,55.20
2017-07-03T07:42:20.161Z,56.50
2017-07-03T07:44:47.640Z,56.70
2017-07-03T07:47:15.904Z,55.90
2017-07-03T07:49:44.150Z,55.30
2017-07-03T07:52:11.642Z,55.30
2017-07-03T07:54:39.920Z,56.40
2017-07-03T07:57:09.904Z,54.50
2017-07-03T07:59:38.988Z,54.30
2017-07-03T08:02:07.214Z,52.50
2017-07-03T08:04:35.477Z,51.70
2017-07-03T08:07:03.733Z,53.40
2017-07-03T08:09:31.218Z,53.30
2017-07-03T08:11:59.479Z,53.30
2017-07-03T08:14:26.980Z,53.20
2017-07-03T08:16:54.476Z,52.90
2017-07-03T08:19:22.004Z,52.50
2017-07-03T08:21:49.502Z,50.70
2017-07-03T08:24:16.998Z,50.50
2017-07-03T08:26:44.485Z,50.50
2017-07-03T08:29:12.038Z,50.70
2017-07-03T08:31:39.513Z,52.70
2017-07-03T08:34:07.006Z,53.10
2017-07-03T08:36:34.510Z,52.20
2017-07-03T08:39:02.015Z,51.60
2017-07-03T08:41:29.506Z,52.30
2017-07-03T08:43:57.005Z,52.80
2017-07-03T08:46:24.488Z,54.70
2017-07-03T08:48:51.981Z,54.30
2017-07-03T08:51:20.244Z,54.20
2017-07-03T08:53:48.509Z,55.20
2017-07-03T08:56:15.984Z,55.20
2017-07-03T08:58:44.241Z,55.40
2017-07-03T09:01:11.751Z,55.30
2017-07-03T09:03:39.222Z,54.30
2017-07-03T09:06:06.872Z,55.20
2017-07-03T09:08:34.348Z,54.70
2017-07-03T09:11:01.829Z,54.90
2017-07-03T09:13:29.326Z,54.70
2017-07-03T09:15:56.803Z,53.90
2017-07-03T09:18:24.643Z,53.20
2017-07-03T09:20:53.194Z,50.70
2017-07-03T09:23:20.688Z,50.60
2017-07-03T09:25:48.168Z,49.70
2017-07-03T09:28:15.642Z,48.50
2017-07-03T09:30:43.149Z,49.00
2017-07-03T09:33:11.386Z,46.40
2017-07-03T09:35:38.885Z,46.20
2017-07-03T09:38:07.139Z,43.70
2017-07-03T09:40:34.629Z,43.60
2017-07-03T09:43:02.870Z,48.20
2017-07-03T09:45:30.365Z,48.20
2017-07-03T09:47:57.842Z,48.30
2017-07-03T09:50:25.308Z,48.90
2017-07-03T09:52:52.805Z,49.50
2017-07-03T09:55:20.320Z,49.90
2017-07-03T09:57:47.815Z,48.10
2017-07-03T10:00:15.288Z,48.90
2017-07-03T10:02:42.796Z,48.20
2017-07-03T10:05:10.312Z,48.30
2017-07-03T10:07:37.789Z,47.20
2017-07-03T10:10:06.065Z,46.90
2017-07-03T10:12:33.586Z,47.00
2017-07-03T10:15:01.078Z,48.00
2017-07-03T10:17:29.316Z,48.80
2017-07-03T10:19:56.805Z,48.70
2017-07-03T10:22:25.064Z,50.30
2017-07-03T10:24:52.578Z,49.70
2017-07-03T10:27:20.102Z,51.90
2017-07-03T10:29:48.337Z,51.00
2017-07-03T10:32:15.821Z,50.80
2017-07-03T10:34:43.321Z,45.10
2017-07-03T10:37:10.788Z,42.10
2017-07-03T10:39:38.276Z,41.50
2017-07-03T10:42:05.753Z,41.90
2017-07-03T10:44:34.025Z,39.40
2017-07-03T10:47:01.503Z,39.30
2017-07-03T10:49:29.734Z,42.10
2017-07-03T10:51:57.240Z,42.10
2017-07-03T10:54:24.749Z,45.00
2017-07-03T10:56:52.250Z,45.40
2017-07-03T10:59:20.489Z,44.10
2017-07-03T11:01:47.985Z,43.90
2017-07-03T11:04:16.276Z,38.80
2017-07-03T11:06:43.752Z,38.70
2017-07-03T11:09:11.265Z,36.80
2017-07-03T11:11:38.796Z,36.20
2017-07-03T11:14:06.291Z,35.50
2017-07-03T11:16:33.760Z,39.60
2017-07-03T11:19:02.071Z,39.70
2017-07-03T11:21:29.538Z,39.80
2017-07-03T11:23:57.212Z,41.70
2017-07-03T11:26:24.767Z,45.00
2017-07-03T11:28:52.241Z,47.00
2017-07-03T11:31:19.745Z,46.80
2017-07-03T11:33:47.226Z,46.20
2017-07-03T11:36:14.698Z,45.90
2017-07-03T11:38:42.196Z,44.30
2017-07-03T11:41:09.663Z,46.00
2017-07-03T11:43:37.143Z,46.10
2017-07-03T11:46:04.649Z,45.70
2017-07-03T11:48:32.132Z,46.40
2017-07-03T11:50:59.620Z,45.00
2017-07-03T11:53:27.094Z,44.40
2017-07-03T11:55:54.589Z,44.10
2017-07-03T11:58:22.816Z,43.10
2017-07-03T12:00:50.312Z,42.90
2017-07-03T12:03:17.784Z,45.40
2017-07-03T12:05:46.031Z,45.50
2017-07-03T12:08:13.518Z,45.40
2017-07-03T12:10:41.764Z,48.10
2017-07-03T12:13:09.265Z,48.00
2017-07-03T12:15:37.910Z,46.20
2017-07-03T12:18:05.396Z,46.80
2017-07-03T12:20:33.668Z,46.70
2017-07-03T12:23:01.913Z,46.80
2017-07-03T12:25:29.423Z,46.80
2017-07-03T12:27:56.904Z,46.70
2017-07-03T12:30:24.404Z,45.60
2017-07-03T12:32:51.884Z,46.70
2017-07-03T12:35:20.135Z,44.50
2017-07-03T12:37:47.638Z,44.30
2017-07-03T12:40:15.110Z,47.00
2017-07-03T12:42:42.619Z,45.20
2017-07-03T12:45:10.110Z,45.60
2017-07-03T12:47:37.597Z,46.20
2017-07-03T12:50:05.059Z,45.50
2017-07-03T12:52:32.555Z,46.00
2017-07-03T12:55:00.057Z,45.70
2017-07-03T12:57:27.541Z,47.00
2017-07-03T12:59:55.031Z,46.00
2017-07-03T13:02:23.281Z,45.40
2017-07-03T13:04:50.753Z,45.40
2017-07-03T13:07:18.299Z,44.70
2017-07-03T13:09:45.770Z,43.50
2017-07-03T13:12:13.256Z,42.10
2017-07-03T13:14:40.761Z,44.10
2017-07-03T13:17:08.272Z,44.60
2017-07-03T13:19:36.513Z,45.00
2017-07-03T13:22:03.988Z,45.10
2017-07-03T13:24:32.254Z,46.00
2017-07-03T13:26:59.732Z,45.50
2017-07-03T13:29:27.997Z,43.90
2017-07-03T13:31:55.477Z,43.90
2017-07-03T13:34:23.730Z,42.00
2017-07-03T13:36:51.222Z,42.00
2017-07-03T13:39:18.724Z,42.50
2017-07-03T13:41:46.216Z,40.20
2017-07-03T13:44:14.450Z,41.60
2017-07-03T13:46:41.945Z,41.50
2017-07-03T13:49:10.198Z,43.20
2017-07-03T13:51:37.701Z,43.20
2017-07-03T13:54:05.174Z,43.40
2017-07-03T13:56:32.660Z,40.10
2017-07-03T13:59:00.140Z,42.90
2017-07-03T14:01:27.601Z,42.40
2017-07-03T14:03:55.099Z,40.60
2017-07-03T14:06:22.589Z,41.60
2017-07-03T14:08:50.136Z,40.40
2017-07-03T14:11:17.626Z,39.20
2017-07-03T14:13:45.092Z,38.40
2017-07-03T14:16:12.616Z,38.00
2017-07-03T14:18:40.099Z,37.00
2017-07-03T14:21:07.587Z,38.70
2017-07-03T14:23:35.825Z,38.70
2017-07-03T14:26:03.333Z,38.70
2017-07-03T14:28:30.815Z,39.60
2017-07-03T14:30:58.290Z,39.80
2017-07-03T14:33:25.786Z,40.90
2017-07-03T14:35:54.045Z,41.80
2017-07-03T14:38:21.564Z,41.70
2017-07-03T14:40:49.049Z,42.10
2017-07-03T14:43:16.532Z,42.30
2017-07-03T14:45:44.015Z,42.80
2017-07-03T14:48:11.496Z,41.90
2017-07-03T14:50:39.014Z,41.60
2017-07-03T14:53:07.280Z,40.50
2017-07-03T14:55:34.760Z,40.50
2017-07-03T14:58:03.026Z,41.60
2017-07-03T15:00:31.270Z,39.70
2017-07-03T15:02:58.755Z,39.70
2017-07-03T15:05:27.023Z,39.70
2017-07-03T15:07:54.496Z,39.70
2017-07-03T15:10:22.749Z,38.90
2017-07-03T15:12:50.229Z,38.30
2017-07-03T15:15:18.484Z,38.90
2017-07-03T15:17:45.970Z,38.90
2017-07-03T15:20:14.229Z,38.80
2017-07-03T15:22:41.743Z,38.80
2017-07-03T15:25:09.217Z,38.50
2017-07-03T15:27:36.716Z,39.50
2017-07-03T15:30:04.965Z,40.10
2017-07-03T15:32:32.453Z,40.00
2017-07-03T15:35:00.689Z,41.30
2017-07-03T15:37:28.197Z,40.80
2017-07-03T15:39:55.669Z,41.50
2017-07-03T15:42:23.154Z,43.90
2017-07-03T15:44:50.657Z,42.50
2017-07-03T15:47:18.915Z,43.10
2017-07-03T15:49:46.415Z,43.10
2017-07-03T15:52:13.902Z,43.50
2017-07-03T15:54:41.384Z,44.20
2017-07-03T15:57:08.908Z,43.50
2017-07-03T15:59:36.381Z,44.10
2017-07-03T16:02:05.572Z,44.20
2017-07-03T16:04:34.281Z,44.00
2017-07-03T16:07:01.764Z,44.00
2017-07-03T16:09:30.004Z,42.80
2017-07-03T16:11:57.514Z,42.80
2017-07-03T16:14:25.773Z,39.10
2017-07-03T16:16:53.312Z,39.10
2017-07-03T16:19:20.816Z,39.20
2017-07-03T16:21:48.297Z,38.30
2017-07-03T16:24:15.776Z,39.30
2017-07-03T16:26:43.287Z,39.70
2017-07-03T16:29:10.779Z,40.10
2017-07-03T16:31:38.262Z,41.40
2017-07-03T16:34:05.761Z,39.80
2017-07-03T16:36:34.013Z,40.50
2017-07-03T16:39:02.283Z,40.60
2017-07-03T16:41:29.762Z,40.10
2017-07-03T16:43:58.032Z,41.20
2017-07-03T16:46:26.285Z,43.10
2017-07-03T16:48:53.784Z,42.40
2017-07-03T16:51:22.047Z,41.90
2017-07-03T16:53:50.293Z,41.70
2017-07-03T16:56:18.354Z,42.20
2017-07-03T16:58:45.858Z,41.80
2017-07-03T17:01:14.128Z,41.70
2017-07-03T17:03:42.389Z,42.90
2017-07-03T17:06:09.891Z,42.90
2017-07-03T17:08:37.376Z,42.10
2017-07-03T17:11:04.842Z,42.20
2017-07-03T17:13:32.347Z,41.80
2017-07-03T17:16:00.578Z,42.10
2017-07-03T17:18:28.061Z,42.10
2017-07-03T17:20:55.601Z,42.40
2017-07-03T17:23:23.078Z,42.90
2017-07-03T17:25:50.585Z,42.80
2017-07-03T17:28:18.057Z,43.60
2017-07-03T17:30:45.558Z,43.20
2017-07-03T17:33:13.063Z,43.80
2017-07-03T17:35:40.536Z,43.50
2017-07-03T17:38:08.049Z,43.60
2017-07-03T17:40:36.304Z,43.40
2017-07-03T17:43:03.781Z,43.30
2017-07-03T17:45:32.056Z,44.40
2017-07-03T17:48:00.317Z,44.80
2017-07-03T17:50:27.810Z,44.70
2017-07-03T17:52:55.386Z,45.80
2017-07-03T17:55:22.893Z,45.60
2017-07-03T17:57:50.367Z,45.70
2017-07-03T18:00:18.612Z,46.60
2017-07-03T18:02:46.124Z,46.60
2017-07-03T18:05:13.612Z,46.70
2017-07-03T18:07:41.119Z,47.30
2017-07-03T18:10:09.367Z,47.40
2017-07-03T18:12:36.858Z,47.40
2017-07-03T18:15:05.149Z,47.70
2017-07-03T18:17:32.657Z,47.60
2017-07-03T18:20:00.157Z,48.60
2017-07-03T18:22:28.414Z,48.40
2017-07-03T18:24:56.677Z,48.60
2017-07-03T18:27:24.175Z,49.20
2017-07-03T18:29:51.660Z,48.70
2017-07-03T18:32:19.177Z,48.80
2017-07-03T18:34:47.431Z,48.90
2017-07-03T18:37:14.937Z,48.90
2017-07-03T18:39:42.423Z,49.40
2017-07-03T18:42:09.928Z,50.60
2017-07-03T18:44:38.224Z,50.90
2017-07-03T18:47:05.726Z,50.90
2017-07-03T18:49:33.228Z,50.80
2017-07-03T18:52:00.719Z,50.60
2017-07-03T18:54:28.228Z,50.10
2017-07-03T18:56:56.549Z,51.00
2017-07-03T18:59:24.049Z,51.00
2017-07-03T19:01:51.595Z,50.80
2017-07-03T19:04:19.102Z,50.90
2017-07-03T19:06:46.597Z,51.40
2017-07-03T19:09:14.096Z,51.40
2017-07-03T19:11:42.408Z,53.70
2017-07-03T19:14:09.921Z,53.70
2017-07-03T19:16:37.403Z,51.90
2017-07-03T19:19:05.681Z,52.30
2017-07-03T19:21:33.943Z,52.90
2017-07-03T19:24:01.444Z,52.50
2017-07-03T19:26:28.930Z,53.70
2017-07-03T19:28:56.427Z,52.80
2017-07-03T19:31:23.900Z,53.00
2017-07-03T19:33:51.446Z,53.60
2017-07-03T19:36:19.688Z,54.30
2017-07-03T19:38:47.194Z,54.30
2017-07-03T19:41:14.727Z,55.20
2017-07-03T19:43:43.230Z,55.60
2017-07-03T19:46:10.775Z,55.30
2017-07-03T19:48:39.030Z,55.80
2017-07-03T19:51:06.542Z,55.70
2017-07-03T19:53:34.038Z,56.60
2017-07-03T19:56:01.579Z,56.20
2017-07-03T19:58:29.069Z,56.20
2017-07-03T20:00:56.587Z,56.80
2017-07-03T20:03:24.121Z,57.80
2017-07-03T20:05:51.608Z,58.80
2017-07-03T20:08:19.163Z,57.60
2017-07-03T20:10:46.689Z,58.00
2017-07-03T20:13:14.937Z,58.30
2017-07-03T20:15:42.561Z,58.30
2017-07-03T20:18:10.041Z,59.00
2017-07-03T20:20:37.580Z,59.00
2017-07-03T20:23:05.073Z,58.60
2017-07-03T20:25:32.588Z,58.90
2017-07-03T20:28:00.103Z,58.70
2017-07-03T20:30:27.584Z,58.50
2017-07-03T20:32:55.175Z,59.00
2017-07-03T20:35:22.696Z,59.50
2017-07-03T20:37:50.981Z,60.70
2017-07-03T20:40:19.288Z,59.60
2017-07-03T20:42:46.784Z,59.50
2017-07-03T20:45:14.301Z,59.90
2017-07-03T20:47:41.774Z,60.20
2017-07-03T20:50:10.226Z,60.60
2017-07-03T20:52:37.724Z,60.40
2017-07-03T20:55:05.213Z,60.80
2017-07-03T20:57:33.469Z,60.80
2017-07-03T21:00:01.016Z,60.80
2017-07-03T21:02:28.530Z,61.30
2017-07-03T21:04:56.012Z,61.20
2017-07-03T21:07:23.497Z,61.10
2017-07-03T21:09:50.988Z,61.50
2017-07-03T21:12:19.229Z,61.80
2017-07-03T21:14:46.745Z,61.80
2017-07-03T21:17:14.227Z,62.20
2017-07-03T21:19:41.735Z,61.90
2017-07-03T21:22:09.981Z,63.40
2017-07-03T21:24:37.467Z,63.40
2017-07-03T21:27:05.742Z,63.40
2017-07-03T21:29:33.996Z,62.90
2017-07-03T21:32:01.470Z,62.80
2017-07-03T21:34:28.980Z,62.80
2017-07-03T21:36:56.463Z,63.90
2017-07-03T21:39:24.897Z,64.50
2017-07-03T21:41:52.478Z,64.90
2017-07-03T21:44:19.981Z,64.00
2017-07-03T21:46:47.482Z,64.30
2017-07-03T21:49:14.957Z,64.30
2017-07-03T21:51:42.469Z,64.70
2017-07-03T21:54:10.714Z,65.50
2017-07-03T21:56:38.195Z,65.40
2017-07-03T21:59:06.462Z,66.10
2017-07-03T22:01:33.954Z,66.80
2017-07-03T22:04:01.453Z,66.50
2017-07-03T22:06:28.952Z,66.90
2017-07-03T22:08:57.237Z,68.70
2017-07-03T22:11:25.473Z,68.00
2017-07-03T22:13:52.951Z,67.90
2017-07-03T22:16:20.446Z,69.70
2017-07-03T22:18:47.924Z,68.60
2017-07-03T22:21:15.434Z,69.30
2017-07-03T22:23:42.975Z,70.60
2017-07-03T22:26:10.480Z,73.00
2017-07-03T22:28:37.955Z,73.40
2017-07-03T22:31:05.482Z,73.50
2017-07-03T22:33:33.735Z,74.50
2017-07-03T22:36:01.357Z,74.40
2017-07-03T22:38:28.834Z,74.70
2017-07-03T22:40:56.318Z,74.40
2017-07-03T22:43:24.590Z,75.90
2017-07-03T22:45:52.070Z,75.70
2017-07-03T22:48:20.333Z,76.20
2017-07-03T22:50:48.572Z,76.60
2017-07-03T22:53:16.050Z,76.40
2017-07-03T22:55:43.557Z,76.10
2017-07-03T22:58:11.057Z,75.90
2017-07-03T23:00:38.562Z,76.30
2017-07-03T23:03:06.085Z,77.10
2017-07-03T23:05:33.577Z,77.90
2017-07-03T23:08:01.065Z,78.20
2017-07-03T23:10:28.568Z,77.70
2017-07-03T23:12:56.049Z,77.50
2017-07-03T23:15:23.534Z,78.10
2017-07-03T23:17:51.041Z,77.60
2017-07-03T23:20:18.555Z,77.60
2017-07-03T23:22:46.056Z,78.40
2017-07-03T23:25:13.537Z,78.30
2017-07-03T23:27:41.797Z,79.10
2017-07-03T23:30:10.053Z,79.80
2017-07-03T23:32:37.556Z,79.70
2017-07-03T23:35:05.044Z,80.90
2017-07-03T23:37:32.569Z,80.80
2017-07-03T23:40:00.076Z,81.40
2017-07-03T23:42:27.581Z,79.90
2017-07-03T23:44:55.826Z,81.50
2017-07-03T23:47:23.320Z,81.40
2017-07-03T23:49:50.811Z,81.00
2017-07-03T23:52:18.328Z,82.40
2017-07-03T23:54:46.603Z,79.70
2017-07-03T23:57:14.850Z,80.30
2017-07-03T23:59:42.381Z,80.30
